sensor_id;sensor_type;location;lat;lon;timestamp;P1;durP1;ratioP1;P2;durP2;ratioP2
33347;SDS011;19707;51.158;17.124;2023-11-19T00:02:22;55.20;;;32.70;;
33347;SDS011;19707;51.158;17.124;2023-11-19T00:05:23;56.80;;;33.00;;
33347;SDS011;19707;51.158;17.124;2023-11-19T00:08:25;55.00;;;35.00;;
33347;SDS011;19707;51.158;17.124;2023-11-19T00:11:28;56.90;;;34.20;;
33347;SDS011;19707;51.158;17.124;2023-11-19T00:14:31;51.40;;;31.70;;
33347;SDS011;19707;51.158;17.124;2023-11-19T00:17:33;58.10;;;35.00;;
33347;SDS011;19707;51.158;17.124;2023-11-19T00:20:35;57.80;;;33.00;;
33347;SDS011;19707;51.158;17.124;2023-11-19T00:23:37;57.40;;;34.30;;
33347;SDS011;19707;51.158;17.124;2023-11-19T00:26:39;57.00;;;35.20;;
33347;SDS011;19707;51.158;17.124;2023-11-19T00:29:41;54.00;;;32.60;;
33347;SDS011;19707;51.158;17.124;2023-11-19T00:32:44;57.40;;;32.50;;
33347;SDS011;19707;51.158;17.124;2023-11-19T00:35:56;57.00;;;33.50;;
33347;SDS011;19707;51.158;17.124;2023-11-19T00:39:22;59.30;;;33.90;;
33347;SDS011;19707;51.158;17.124;2023-11-19T00:42:24;54.90;;;32.30;;
33347;SDS011;19707;51.158;17.124;2023-11-19T00:45:26;58.30;;;31.90;;
33347;SDS011;19707;51.158;17.124;2023-11-19T00:48:28;47.80;;;31.00;;
33347;SDS011;19707;51.158;17.124;2023-11-19T00:51:31;52.80;;;32.50;;
33347;SDS011;19707;51.158;17.124;2023-11-19T00:54:36;53.50;;;32.50;;
33347;SDS011;19707;51.158;17.124;2023-11-19T00:57:38;55.30;;;32.00;;
33347;SDS011;19707;51.158;17.124;2023-11-19T01:00:40;54.40;;;30.60;;
33347;SDS011;19707;51.158;17.124;2023-11-19T01:03:43;50.90;;;31.50;;
33347;SDS011;19707;51.158;17.124;2023-11-19T01:06:45;50.20;;;30.30;;
33347;SDS011;19707;51.158;17.124;2023-11-19T01:09:47;49.20;;;29.80;;
33347;SDS011;19707;51.158;17.124;2023-11-19T01:12:49;54.20;;;31.00;;
33347;SDS011;19707;51.158;17.124;2023-11-19T01:15:51;49.10;;;29.90;;
33347;SDS011;19707;51.158;17.124;2023-11-19T01:18:53;54.80;;;31.00;;
33347;SDS011;19707;51.158;17.124;2023-11-19T01:21:55;48.70;;;29.20;;
33347;SDS011;19707;51.158;17.124;2023-11-19T01:24:57;57.00;;;29.20;;
33347;SDS011;19707;51.158;17.124;2023-11-19T01:27:59;49.90;;;29.40;;
33347;SDS011;19707;51.158;17.124;2023-11-19T01:31:03;51.40;;;30.10;;
33347;SDS011;19707;51.158;17.124;2023-11-19T01:34:05;53.00;;;29.80;;
33347;SDS011;19707;51.158;17.124;2023-11-19T01:37:07;52.20;;;27.80;;
33347;SDS011;19707;51.158;17.124;2023-11-19T01:40:14;55.00;;;31.50;;
33347;SDS011;19707;51.158;17.124;2023-11-19T01:43:32;49.50;;;29.20;;
33347;SDS011;19707;51.158;17.124;2023-11-19T01:46:35;50.70;;;29.70;;
33347;SDS011;19707;51.158;17.124;2023-11-19T01:49:38;53.70;;;29.60;;
33347;SDS011;19707;51.158;17.124;2023-11-19T01:52:40;46.80;;;26.80;;
33347;SDS011;19707;51.158;17.124;2023-11-19T01:55:42;51.30;;;29.00;;
33347;SDS011;19707;51.158;17.124;2023-11-19T01:58:44;51.50;;;30.00;;
33347;SDS011;19707;51.158;17.124;2023-11-19T02:01:47;52.90;;;28.70;;
33347;SDS011;19707;51.158;17.124;2023-11-19T02:04:49;52.10;;;31.00;;
33347;SDS011;19707;51.158;17.124;2023-11-19T02:07:52;55.50;;;32.20;;
33347;SDS011;19707;51.158;17.124;2023-11-19T02:10:54;47.50;;;29.10;;
33347;SDS011;19707;51.158;17.124;2023-11-19T02:14:00;53.30;;;29.90;;
33347;SDS011;19707;51.158;17.124;2023-11-19T02:17:27;52.10;;;31.10;;
33347;SDS011;19707;51.158;17.124;2023-11-19T02:20:35;54.80;;;31.10;;
33347;SDS011;19707;51.158;17.124;2023-11-19T02:23:38;51.20;;;30.10;;
33347;SDS011;19707;51.158;17.124;2023-11-19T02:26:43;53.90;;;29.30;;
33347;SDS011;19707;51.158;17.124;2023-11-19T02:29:46;51.00;;;30.40;;
33347;SDS011;19707;51.158;17.124;2023-11-19T02:32:49;50.30;;;28.80;;
33347;SDS011;19707;51.158;17.124;2023-11-19T02:35:51;50.20;;;29.60;;
33347;SDS011;19707;51.158;17.124;2023-11-19T02:38:53;50.90;;;30.10;;
33347;SDS011;19707;51.158;17.124;2023-11-19T02:41:56;52.90;;;29.20;;
33347;SDS011;19707;51.158;17.124;2023-11-19T02:45:10;48.70;;;28.80;;
33347;SDS011;19707;51.158;17.124;2023-11-19T02:48:15;54.80;;;29.90;;
33347;SDS011;19707;51.158;17.124;2023-11-19T02:51:17;48.80;;;29.90;;
33347;SDS011;19707;51.158;17.124;2023-11-19T02:54:20;56.30;;;30.60;;
33347;SDS011;19707;51.158;17.124;2023-11-19T02:57:30;56.30;;;31.90;;
33347;SDS011;19707;51.158;17.124;2023-11-19T03:00:34;52.80;;;29.80;;
33347;SDS011;19707;51.158;17.124;2023-11-19T03:03:39;57.40;;;30.40;;
33347;SDS011;19707;51.158;17.124;2023-11-19T03:06:42;49.10;;;29.00;;
33347;SDS011;19707;51.158;17.124;2023-11-19T03:09:44;52.90;;;30.00;;
33347;SDS011;19707;51.158;17.124;2023-11-19T03:12:46;53.90;;;28.80;;
33347;SDS011;19707;51.158;17.124;2023-11-19T03:15:48;49.50;;;28.50;;
33347;SDS011;19707;51.158;17.124;2023-11-19T03:18:50;53.40;;;30.10;;
33347;SDS011;19707;51.158;17.124;2023-11-19T03:21:52;52.70;;;29.10;;
33347;SDS011;19707;51.158;17.124;2023-11-19T03:24:54;49.60;;;28.90;;
33347;SDS011;19707;51.158;17.124;2023-11-19T03:27:56;51.20;;;30.00;;
33347;SDS011;19707;51.158;17.124;2023-11-19T03:31:00;51.30;;;30.10;;
33347;SDS011;19707;51.158;17.124;2023-11-19T03:34:02;55.20;;;29.10;;
33347;SDS011;19707;51.158;17.124;2023-11-19T03:37:04;54.00;;;28.90;;
33347;SDS011;19707;51.158;17.124;2023-11-19T03:40:06;56.60;;;27.80;;
33347;SDS011;19707;51.158;17.124;2023-11-19T03:43:09;54.00;;;30.00;;
33347;SDS011;19707;51.158;17.124;2023-11-19T03:46:18;47.50;;;28.30;;
33347;SDS011;19707;51.158;17.124;2023-11-19T03:49:33;45.30;;;27.90;;
33347;SDS011;19707;51.158;17.124;2023-11-19T03:52:35;52.10;;;28.80;;
33347;SDS011;19707;51.158;17.124;2023-11-19T03:55:38;49.40;;;29.20;;
33347;SDS011;19707;51.158;17.124;2023-11-19T03:58:40;49.70;;;28.10;;
33347;SDS011;19707;51.158;17.124;2023-11-19T04:01:42;50.00;;;27.90;;
33347;SDS011;19707;51.158;17.124;2023-11-19T04:04:48;50.20;;;28.00;;
33347;SDS011;19707;51.158;17.124;2023-11-19T04:07:50;55.10;;;27.20;;
33347;SDS011;19707;51.158;17.124;2023-11-19T04:10:52;45.60;;;26.60;;
33347;SDS011;19707;51.158;17.124;2023-11-19T04:13:55;49.30;;;28.10;;
33347;SDS011;19707;51.158;17.124;2023-11-19T04:16:56;45.60;;;26.90;;
33347;SDS011;19707;51.158;17.124;2023-11-19T04:19:58;45.90;;;26.30;;
33347;SDS011;19707;51.158;17.124;2023-11-19T04:23:01;44.70;;;25.90;;
33347;SDS011;19707;51.158;17.124;2023-11-19T04:26:03;45.20;;;25.70;;
33347;SDS011;19707;51.158;17.124;2023-11-19T04:29:06;44.40;;;24.90;;
33347;SDS011;19707;51.158;17.124;2023-11-19T04:32:09;45.20;;;23.80;;
33347;SDS011;19707;51.158;17.124;2023-11-19T04:35:11;41.90;;;24.90;;
33347;SDS011;19707;51.158;17.124;2023-11-19T04:38:14;42.00;;;25.00;;
33347;SDS011;19707;51.158;17.124;2023-11-19T04:41:31;38.40;;;22.60;;
33347;SDS011;19707;51.158;17.124;2023-11-19T04:44:37;38.90;;;23.50;;
33347;SDS011;19707;51.158;17.124;2023-11-19T04:47:50;39.60;;;22.80;;
33347;SDS011;19707;51.158;17.124;2023-11-19T04:50:52;37.70;;;23.10;;
33347;SDS011;19707;51.158;17.124;2023-11-19T04:53:54;37.50;;;22.00;;
33347;SDS011;19707;51.158;17.124;2023-11-19T04:56:56;40.90;;;24.50;;
33347;SDS011;19707;51.158;17.124;2023-11-19T05:00:00;36.90;;;22.10;;
33347;SDS011;19707;51.158;17.124;2023-11-19T05:03:03;39.20;;;21.50;;
33347;SDS011;19707;51.158;17.124;2023-11-19T05:06:05;38.70;;;24.90;;
33347;SDS011;19707;51.158;17.124;2023-11-19T05:09:07;38.60;;;22.50;;
33347;SDS011;19707;51.158;17.124;2023-11-19T05:12:10;40.80;;;22.80;;
33347;SDS011;19707;51.158;17.124;2023-11-19T05:15:14;37.90;;;21.30;;
33347;SDS011;19707;51.158;17.124;2023-11-19T05:18:16;38.00;;;22.00;;
33347;SDS011;19707;51.158;17.124;2023-11-19T05:21:18;39.90;;;23.10;;
33347;SDS011;19707;51.158;17.124;2023-11-19T05:24:20;36.20;;;21.10;;
33347;SDS011;19707;51.158;17.124;2023-11-19T05:27:22;40.30;;;23.10;;
33347;SDS011;19707;51.158;17.124;2023-11-19T05:30:25;37.80;;;22.20;;
33347;SDS011;19707;51.158;17.124;2023-11-19T05:33:27;40.20;;;22.40;;
33347;SDS011;19707;51.158;17.124;2023-11-19T05:36:29;36.80;;;21.20;;
33347;SDS011;19707;51.158;17.124;2023-11-19T05:39:31;36.00;;;21.20;;
33347;SDS011;19707;51.158;17.124;2023-11-19T05:42:33;35.10;;;21.40;;
33347;SDS011;19707;51.158;17.124;2023-11-19T05:45:35;38.60;;;23.70;;
33347;SDS011;19707;51.158;17.124;2023-11-19T05:48:37;36.50;;;22.00;;
33347;SDS011;19707;51.158;17.124;2023-11-19T05:51:40;39.30;;;21.80;;
33347;SDS011;19707;51.158;17.124;2023-11-19T05:54:42;38.90;;;22.70;;
33347;SDS011;19707;51.158;17.124;2023-11-19T05:57:44;41.30;;;23.20;;
33347;SDS011;19707;51.158;17.124;2023-11-19T06:00:46;40.70;;;23.90;;
33347;SDS011;19707;51.158;17.124;2023-11-19T06:03:49;35.40;;;22.00;;
33347;SDS011;19707;51.158;17.124;2023-11-19T06:06:52;42.60;;;23.30;;
33347;SDS011;19707;51.158;17.124;2023-11-19T06:09:54;34.20;;;20.90;;
33347;SDS011;19707;51.158;17.124;2023-11-19T06:12:57;39.10;;;21.80;;
33347;SDS011;19707;51.158;17.124;2023-11-19T06:16:01;38.90;;;22.10;;
33347;SDS011;19707;51.158;17.124;2023-11-19T06:19:04;39.30;;;23.10;;
33347;SDS011;19707;51.158;17.124;2023-11-19T06:22:06;34.80;;;21.60;;
33347;SDS011;19707;51.158;17.124;2023-11-19T06:25:08;32.00;;;19.70;;
33347;SDS011;19707;51.158;17.124;2023-11-19T06:28:11;35.90;;;21.70;;
33347;SDS011;19707;51.158;17.124;2023-11-19T06:31:13;42.40;;;20.50;;
33347;SDS011;19707;51.158;17.124;2023-11-19T06:34:19;35.50;;;21.30;;
33347;SDS011;19707;51.158;17.124;2023-11-19T06:37:22;31.90;;;20.40;;
33347;SDS011;19707;51.158;17.124;2023-11-19T06:40:25;37.80;;;22.20;;
33347;SDS011;19707;51.158;17.124;2023-11-19T06:43:27;31.60;;;20.20;;
33347;SDS011;19707;51.158;17.124;2023-11-19T06:46:29;37.30;;;22.10;;
33347;SDS011;19707;51.158;17.124;2023-11-19T06:49:31;32.70;;;20.80;;
33347;SDS011;19707;51.158;17.124;2023-11-19T06:52:33;32.10;;;18.80;;
33347;SDS011;19707;51.158;17.124;2023-11-19T06:55:36;33.30;;;20.20;;
33347;SDS011;19707;51.158;17.124;2023-11-19T06:58:38;31.50;;;19.10;;
33347;SDS011;19707;51.158;17.124;2023-11-19T07:01:41;33.90;;;20.00;;
33347;SDS011;19707;51.158;17.124;2023-11-19T07:04:45;34.90;;;20.80;;
33347;SDS011;19707;51.158;17.124;2023-11-19T07:07:47;33.00;;;19.90;;
33347;SDS011;19707;51.158;17.124;2023-11-19T07:10:49;32.60;;;21.10;;
33347;SDS011;19707;51.158;17.124;2023-11-19T07:13:51;34.50;;;20.30;;
33347;SDS011;19707;51.158;17.124;2023-11-19T07:16:53;30.80;;;19.20;;
33347;SDS011;19707;51.158;17.124;2023-11-19T07:19:57;32.40;;;19.40;;
33347;SDS011;19707;51.158;17.124;2023-11-19T07:23:01;30.00;;;18.70;;
33347;SDS011;19707;51.158;17.124;2023-11-19T07:26:05;32.10;;;19.70;;
33347;SDS011;19707;51.158;17.124;2023-11-19T07:29:09;34.80;;;19.90;;
33347;SDS011;19707;51.158;17.124;2023-11-19T07:32:14;32.20;;;18.90;;
33347;SDS011;19707;51.158;17.124;2023-11-19T07:35:16;30.00;;;19.10;;
33347;SDS011;19707;51.158;17.124;2023-11-19T07:38:19;32.60;;;19.30;;
33347;SDS011;19707;51.158;17.124;2023-11-19T07:41:21;32.00;;;18.40;;
33347;SDS011;19707;51.158;17.124;2023-11-19T07:44:23;32.50;;;20.00;;
33347;SDS011;19707;51.158;17.124;2023-11-19T07:47:26;31.00;;;18.30;;
33347;SDS011;19707;51.158;17.124;2023-11-19T07:50:30;31.20;;;18.50;;
33347;SDS011;19707;51.158;17.124;2023-11-19T07:53:33;29.40;;;17.90;;
33347;SDS011;19707;51.158;17.124;2023-11-19T07:56:35;27.90;;;18.20;;
33347;SDS011;19707;51.158;17.124;2023-11-19T07:59:38;30.50;;;17.90;;
33347;SDS011;19707;51.158;17.124;2023-11-19T08:02:41;27.10;;;17.30;;
33347;SDS011;19707;51.158;17.124;2023-11-19T08:05:43;25.20;;;17.40;;
33347;SDS011;19707;51.158;17.124;2023-11-19T08:08:46;25.30;;;17.00;;
33347;SDS011;19707;51.158;17.124;2023-11-19T08:11:49;27.70;;;17.90;;
33347;SDS011;19707;51.158;17.124;2023-11-19T08:14:56;27.10;;;18.50;;
33347;SDS011;19707;51.158;17.124;2023-11-19T08:18:04;25.90;;;16.70;;
33347;SDS011;19707;51.158;17.124;2023-11-19T08:21:10;26.10;;;17.30;;
33347;SDS011;19707;51.158;17.124;2023-11-19T08:24:13;25.60;;;16.80;;
33347;SDS011;19707;51.158;17.124;2023-11-19T08:27:15;31.80;;;19.80;;
33347;SDS011;19707;51.158;17.124;2023-11-19T08:30:18;28.00;;;17.90;;
33347;SDS011;19707;51.158;17.124;2023-11-19T08:33:21;29.40;;;17.50;;
33347;SDS011;19707;51.158;17.124;2023-11-19T08:36:24;28.80;;;17.30;;
33347;SDS011;19707;51.158;17.124;2023-11-19T08:39:26;32.20;;;19.40;;
33347;SDS011;19707;51.158;17.124;2023-11-19T08:42:28;29.80;;;18.60;;
33347;SDS011;19707;51.158;17.124;2023-11-19T08:45:31;32.50;;;19.90;;
33347;SDS011;19707;51.158;17.124;2023-11-19T08:48:34;31.90;;;20.00;;
33347;SDS011;19707;51.158;17.124;2023-11-19T08:51:36;33.80;;;21.60;;
33347;SDS011;19707;51.158;17.124;2023-11-19T08:54:47;35.10;;;21.90;;
33347;SDS011;19707;51.158;17.124;2023-11-19T08:57:52;34.10;;;21.00;;
33347;SDS011;19707;51.158;17.124;2023-11-19T09:00:57;35.10;;;20.00;;
33347;SDS011;19707;51.158;17.124;2023-11-19T09:07:02;36.70;;;21.10;;
33347;SDS011;19707;51.158;17.124;2023-11-19T09:10:05;29.30;;;17.70;;
33347;SDS011;19707;51.158;17.124;2023-11-19T09:13:10;18.80;;;12.80;;
33347;SDS011;19707;51.158;17.124;2023-11-19T09:16:12;34.30;;;18.60;;
33347;SDS011;19707;51.158;17.124;2023-11-19T09:19:14;32.60;;;19.40;;
33347;SDS011;19707;51.158;17.124;2023-11-19T09:22:16;36.40;;;20.90;;
33347;SDS011;19707;51.158;17.124;2023-11-19T09:25:19;32.40;;;20.00;;
33347;SDS011;19707;51.158;17.124;2023-11-19T09:28:21;32.80;;;20.70;;
33347;SDS011;19707;51.158;17.124;2023-11-19T09:31:24;33.30;;;19.50;;
33347;SDS011;19707;51.158;17.124;2023-11-19T09:34:26;32.40;;;19.80;;
33347;SDS011;19707;51.158;17.124;2023-11-19T09:37:29;32.80;;;20.90;;
33347;SDS011;19707;51.158;17.124;2023-11-19T09:40:32;36.30;;;21.10;;
33347;SDS011;19707;51.158;17.124;2023-11-19T09:43:40;32.80;;;20.10;;
33347;SDS011;19707;51.158;17.124;2023-11-19T09:46:43;33.70;;;20.30;;
33347;SDS011;19707;51.158;17.124;2023-11-19T09:49:46;32.90;;;20.60;;
33347;SDS011;19707;51.158;17.124;2023-11-19T09:52:49;28.20;;;17.30;;
33347;SDS011;19707;51.158;17.124;2023-11-19T09:55:52;33.20;;;19.30;;
33347;SDS011;19707;51.158;17.124;2023-11-19T09:58:55;29.70;;;17.50;;
33347;SDS011;19707;51.158;17.124;2023-11-19T10:01:57;28.40;;;18.50;;
33347;SDS011;19707;51.158;17.124;2023-11-19T10:05:01;31.00;;;17.80;;
33347;SDS011;19707;51.158;17.124;2023-11-19T10:08:07;31.20;;;18.40;;
33347;SDS011;19707;51.158;17.124;2023-11-19T10:11:18;26.50;;;16.90;;
33347;SDS011;19707;51.158;17.124;2023-11-19T10:17:42;32.00;;;18.50;;
33347;SDS011;19707;51.158;17.124;2023-11-19T10:20:44;28.30;;;16.90;;
33347;SDS011;19707;51.158;17.124;2023-11-19T10:23:56;28.50;;;16.90;;
33347;SDS011;19707;51.158;17.124;2023-11-19T10:27:01;28.00;;;19.30;;
33347;SDS011;19707;51.158;17.124;2023-11-19T10:33:13;22.70;;;14.90;;
33347;SDS011;19707;51.158;17.124;2023-11-19T10:36:22;28.10;;;14.50;;
33347;SDS011;19707;51.158;17.124;2023-11-19T10:43:02;23.10;;;13.70;;
33347;SDS011;19707;51.158;17.124;2023-11-19T10:46:09;22.30;;;14.00;;
33347;SDS011;19707;51.158;17.124;2023-11-19T10:49:17;21.60;;;13.70;;
33347;SDS011;19707;51.158;17.124;2023-11-19T10:52:19;20.30;;;13.20;;
33347;SDS011;19707;51.158;17.124;2023-11-19T10:55:21;21.00;;;13.70;;
33347;SDS011;19707;51.158;17.124;2023-11-19T10:58:32;20.00;;;12.70;;
33347;SDS011;19707;51.158;17.124;2023-11-19T11:01:38;17.60;;;12.60;;
33347;SDS011;19707;51.158;17.124;2023-11-19T11:04:44;22.40;;;13.50;;
33347;SDS011;19707;51.158;17.124;2023-11-19T11:07:46;18.20;;;11.70;;
33347;SDS011;19707;51.158;17.124;2023-11-19T11:10:55;22.40;;;10.70;;
33347;SDS011;19707;51.158;17.124;2023-11-19T11:13:57;17.80;;;11.60;;
33347;SDS011;19707;51.158;17.124;2023-11-19T11:17:01;17.70;;;11.10;;
33347;SDS011;19707;51.158;17.124;2023-11-19T11:20:05;20.60;;;12.50;;
33347;SDS011;19707;51.158;17.124;2023-11-19T11:26:53;21.30;;;12.10;;
33347;SDS011;19707;51.158;17.124;2023-11-19T11:36:41;22.40;;;14.30;;
33347;SDS011;19707;51.158;17.124;2023-11-19T11:39:53;20.60;;;13.10;;
33347;SDS011;19707;51.158;17.124;2023-11-19T11:42:56;24.40;;;13.10;;
33347;SDS011;19707;51.158;17.124;2023-11-19T11:45:59;26.50;;;13.80;;
33347;SDS011;19707;51.158;17.124;2023-11-19T11:52:08;22.60;;;12.70;;
33347;SDS011;19707;51.158;17.124;2023-11-19T11:55:15;16.50;;;9.90;;
33347;SDS011;19707;51.158;17.124;2023-11-19T11:58:18;17.60;;;10.40;;
33347;SDS011;19707;51.158;17.124;2023-11-19T12:01:28;14.40;;;9.70;;
33347;SDS011;19707;51.158;17.124;2023-11-19T12:04:32;15.60;;;8.00;;
33347;SDS011;19707;51.158;17.124;2023-11-19T12:07:36;18.40;;;9.60;;
33347;SDS011;19707;51.158;17.124;2023-11-19T12:10:47;17.30;;;11.20;;
33347;SDS011;19707;51.158;17.124;2023-11-19T12:13:55;12.00;;;8.70;;
33347;SDS011;19707;51.158;17.124;2023-11-19T12:17:03;12.00;;;6.70;;
33347;SDS011;19707;51.158;17.124;2023-11-19T12:20:06;10.20;;;6.50;;
33347;SDS011;19707;51.158;17.124;2023-11-19T12:23:12;12.60;;;7.40;;
33347;SDS011;19707;51.158;17.124;2023-11-19T12:26:35;10.20;;;6.60;;
33347;SDS011;19707;51.158;17.124;2023-11-19T12:29:42;11.80;;;7.20;;
33347;SDS011;19707;51.158;17.124;2023-11-19T12:32:47;9.00;;;5.90;;
33347;SDS011;19707;51.158;17.124;2023-11-19T12:35:51;8.60;;;5.00;;
33347;SDS011;19707;51.158;17.124;2023-11-19T12:38:55;11.30;;;6.40;;
33347;SDS011;19707;51.158;17.124;2023-11-19T12:41:59;7.40;;;5.00;;
33347;SDS011;19707;51.158;17.124;2023-11-19T12:45:05;17.70;;;9.10;;
33347;SDS011;19707;51.158;17.124;2023-11-19T12:48:10;13.10;;;7.50;;
33347;SDS011;19707;51.158;17.124;2023-11-19T12:51:17;8.60;;;5.30;;
33347;SDS011;19707;51.158;17.124;2023-11-19T12:54:34;15.30;;;5.90;;
33347;SDS011;19707;51.158;17.124;2023-11-19T12:57:43;8.90;;;5.70;;
33347;SDS011;19707;51.158;17.124;2023-11-19T13:00:50;10.10;;;5.50;;
33347;SDS011;19707;51.158;17.124;2023-11-19T13:04:17;10.70;;;6.10;;
33347;SDS011;19707;51.158;17.124;2023-11-19T13:07:24;8.80;;;5.60;;
33347;SDS011;19707;51.158;17.124;2023-11-19T13:10:31;9.70;;;5.70;;
33347;SDS011;19707;51.158;17.124;2023-11-19T13:17:04;10.60;;;5.60;;
33347;SDS011;19707;51.158;17.124;2023-11-19T13:20:07;8.70;;;5.90;;
33347;SDS011;19707;51.158;17.124;2023-11-19T13:23:09;11.00;;;5.90;;
33347;SDS011;19707;51.158;17.124;2023-11-19T13:26:16;11.00;;;7.70;;
33347;SDS011;19707;51.158;17.124;2023-11-19T13:29:18;16.10;;;8.20;;
33347;SDS011;19707;51.158;17.124;2023-11-19T13:32:22;12.20;;;7.10;;
33347;SDS011;19707;51.158;17.124;2023-11-19T13:35:24;9.70;;;6.10;;
33347;SDS011;19707;51.158;17.124;2023-11-19T13:38:29;13.70;;;6.70;;
33347;SDS011;19707;51.158;17.124;2023-11-19T13:41:31;11.40;;;7.00;;
33347;SDS011;19707;51.158;17.124;2023-11-19T13:44:33;11.70;;;7.40;;
33347;SDS011;19707;51.158;17.124;2023-11-19T13:47:35;18.30;;;12.20;;
33347;SDS011;19707;51.158;17.124;2023-11-19T13:50:37;18.30;;;10.00;;
33347;SDS011;19707;51.158;17.124;2023-11-19T13:53:39;20.40;;;11.10;;
33347;SDS011;19707;51.158;17.124;2023-11-19T13:56:42;16.30;;;10.40;;
33347;SDS011;19707;51.158;17.124;2023-11-19T13:59:46;15.60;;;10.50;;
33347;SDS011;19707;51.158;17.124;2023-11-19T14:02:48;15.40;;;9.50;;
33347;SDS011;19707;51.158;17.124;2023-11-19T14:05:51;24.70;;;15.20;;
33347;SDS011;19707;51.158;17.124;2023-11-19T14:08:54;35.80;;;22.00;;
33347;SDS011;19707;51.158;17.124;2023-11-19T14:11:59;49.60;;;30.30;;
33347;SDS011;19707;51.158;17.124;2023-11-19T14:15:01;55.60;;;34.80;;
33347;SDS011;19707;51.158;17.124;2023-11-19T14:18:02;46.70;;;27.70;;
33347;SDS011;19707;51.158;17.124;2023-11-19T14:21:05;26.00;;;17.90;;
33347;SDS011;19707;51.158;17.124;2023-11-19T14:24:10;20.50;;;14.20;;
33347;SDS011;19707;51.158;17.124;2023-11-19T14:27:12;20.30;;;13.40;;
33347;SDS011;19707;51.158;17.124;2023-11-19T14:30:14;28.20;;;14.50;;
33347;SDS011;19707;51.158;17.124;2023-11-19T14:33:16;27.10;;;16.10;;
33347;SDS011;19707;51.158;17.124;2023-11-19T14:36:19;28.20;;;16.40;;
33347;SDS011;19707;51.158;17.124;2023-11-19T14:39:21;40.90;;;21.30;;
33347;SDS011;19707;51.158;17.124;2023-11-19T14:42:23;25.20;;;16.10;;
33347;SDS011;19707;51.158;17.124;2023-11-19T14:45:27;19.50;;;11.70;;
33347;SDS011;19707;51.158;17.124;2023-11-19T14:48:30;24.70;;;14.70;;
33347;SDS011;19707;51.158;17.124;2023-11-19T14:51:35;27.00;;;16.90;;
33347;SDS011;19707;51.158;17.124;2023-11-19T14:54:38;29.80;;;18.00;;
33347;SDS011;19707;51.158;17.124;2023-11-19T14:57:40;25.90;;;16.80;;
33347;SDS011;19707;51.158;17.124;2023-11-19T15:00:43;33.90;;;23.00;;
33347;SDS011;19707;51.158;17.124;2023-11-19T15:03:46;40.20;;;23.90;;
33347;SDS011;19707;51.158;17.124;2023-11-19T15:06:48;46.40;;;29.70;;
33347;SDS011;19707;51.158;17.124;2023-11-19T15:09:51;70.40;;;41.40;;
33347;SDS011;19707;51.158;17.124;2023-11-19T15:12:53;80.20;;;46.30;;
33347;SDS011;19707;51.158;17.124;2023-11-19T15:15:56;91.40;;;55.50;;
33347;SDS011;19707;51.158;17.124;2023-11-19T15:18:59;80.50;;;48.00;;
33347;SDS011;19707;51.158;17.124;2023-11-19T15:22:02;46.40;;;28.90;;
33347;SDS011;19707;51.158;17.124;2023-11-19T15:28:11;29.10;;;16.60;;
33347;SDS011;19707;51.158;17.124;2023-11-19T15:31:16;24.90;;;15.60;;
33347;SDS011;19707;51.158;17.124;2023-11-19T15:34:18;26.30;;;17.40;;
33347;SDS011;19707;51.158;17.124;2023-11-19T15:37:21;66.10;;;34.80;;
33347;SDS011;19707;51.158;17.124;2023-11-19T15:40:24;91.00;;;51.40;;
33347;SDS011;19707;51.158;17.124;2023-11-19T15:43:26;84.20;;;50.60;;
33347;SDS011;19707;51.158;17.124;2023-11-19T15:46:28;70.80;;;37.90;;
33347;SDS011;19707;51.158;17.124;2023-11-19T15:49:30;67.90;;;37.70;;
33347;SDS011;19707;51.158;17.124;2023-11-19T15:52:33;63.20;;;35.80;;
33347;SDS011;19707;51.158;17.124;2023-11-19T15:55:35;58.50;;;36.40;;
33347;SDS011;19707;51.158;17.124;2023-11-19T15:58:37;51.80;;;30.70;;
33347;SDS011;19707;51.158;17.124;2023-11-19T16:01:41;42.40;;;25.70;;
33347;SDS011;19707;51.158;17.124;2023-11-19T16:04:43;37.80;;;24.50;;
33347;SDS011;19707;51.158;17.124;2023-11-19T16:07:49;35.70;;;22.80;;
33347;SDS011;19707;51.158;17.124;2023-11-19T16:10:52;35.50;;;22.10;;
33347;SDS011;19707;51.158;17.124;2023-11-19T16:13:58;37.50;;;21.70;;
33347;SDS011;19707;51.158;17.124;2023-11-19T16:17:01;44.80;;;21.00;;
33347;SDS011;19707;51.158;17.124;2023-11-19T16:20:03;32.60;;;20.10;;
33347;SDS011;19707;51.158;17.124;2023-11-19T16:23:08;38.50;;;22.00;;
33347;SDS011;19707;51.158;17.124;2023-11-19T16:26:10;56.40;;;28.70;;
33347;SDS011;19707;51.158;17.124;2023-11-19T16:29:12;56.40;;;29.10;;
33347;SDS011;19707;51.158;17.124;2023-11-19T16:32:15;63.10;;;31.80;;
33347;SDS011;19707;51.158;17.124;2023-11-19T16:35:17;60.60;;;31.40;;
33347;SDS011;19707;51.158;17.124;2023-11-19T16:38:19;61.80;;;32.80;;
33347;SDS011;19707;51.158;17.124;2023-11-19T16:41:22;63.20;;;34.00;;
33347;SDS011;19707;51.158;17.124;2023-11-19T16:44:25;58.60;;;31.20;;
33347;SDS011;19707;51.158;17.124;2023-11-19T16:47:30;49.60;;;27.80;;
33347;SDS011;19707;51.158;17.124;2023-11-19T16:50:34;40.60;;;20.70;;
33347;SDS011;19707;51.158;17.124;2023-11-19T16:53:45;36.20;;;19.80;;
33347;SDS011;19707;51.158;17.124;2023-11-19T16:56:51;32.10;;;17.30;;
33347;SDS011;19707;51.158;17.124;2023-11-19T16:59:54;26.20;;;15.00;;
33347;SDS011;19707;51.158;17.124;2023-11-19T17:02:58;36.10;;;16.10;;
33347;SDS011;19707;51.158;17.124;2023-11-19T17:06:04;36.60;;;16.20;;
33347;SDS011;19707;51.158;17.124;2023-11-19T17:09:07;40.70;;;19.10;;
33347;SDS011;19707;51.158;17.124;2023-11-19T17:12:14;35.10;;;16.90;;
33347;SDS011;19707;51.158;17.124;2023-11-19T17:15:16;35.40;;;16.50;;
33347;SDS011;19707;51.158;17.124;2023-11-19T17:18:18;23.20;;;14.70;;
33347;SDS011;19707;51.158;17.124;2023-11-19T17:21:20;29.50;;;16.40;;
33347;SDS011;19707;51.158;17.124;2023-11-19T17:24:22;34.30;;;13.90;;
33347;SDS011;19707;51.158;17.124;2023-11-19T17:27:25;26.70;;;14.10;;
33347;SDS011;19707;51.158;17.124;2023-11-19T17:30:29;32.10;;;13.50;;
33347;SDS011;19707;51.158;17.124;2023-11-19T17:33:31;32.20;;;14.60;;
33347;SDS011;19707;51.158;17.124;2023-11-19T17:36:33;40.60;;;19.10;;
33347;SDS011;19707;51.158;17.124;2023-11-19T17:39:35;48.80;;;27.40;;
33347;SDS011;19707;51.158;17.124;2023-11-19T17:42:38;46.00;;;23.60;;
33347;SDS011;19707;51.158;17.124;2023-11-19T17:45:40;36.90;;;17.60;;
33347;SDS011;19707;51.158;17.124;2023-11-19T17:48:42;31.40;;;14.80;;
33347;SDS011;19707;51.158;17.124;2023-11-19T17:51:45;30.00;;;14.30;;
33347;SDS011;19707;51.158;17.124;2023-11-19T17:54:47;26.60;;;13.00;;
33347;SDS011;19707;51.158;17.124;2023-11-19T17:57:49;25.10;;;12.20;;
33347;SDS011;19707;51.158;17.124;2023-11-19T18:00:52;28.10;;;13.80;;
33347;SDS011;19707;51.158;17.124;2023-11-19T18:03:55;26.80;;;13.70;;
33347;SDS011;19707;51.158;17.124;2023-11-19T18:06:57;31.00;;;13.50;;
33347;SDS011;19707;51.158;17.124;2023-11-19T18:10:00;25.40;;;13.10;;
33347;SDS011;19707;51.158;17.124;2023-11-19T18:13:02;24.00;;;12.90;;
33347;SDS011;19707;51.158;17.124;2023-11-19T18:16:05;22.40;;;12.30;;